Time;durP1;ratioP1;P1;durP2;ratioP2;P2;SDS_P1;SDS_P2;PMS_P1;PMS_P2;Temp;Humidity;BMP_temperature;BMP_pressure;BME280_temperature;BME280_humidity;BME280_pressure;Samples;Min_cycle;Max_cycle;Signal;HPM_P1;HPM_P2
2023/10/23 00:08:16;;;;;;;162.13;12.03;;;;;;;18.77;100.00;99768.53;30995138;28;20046;-75
2023/10/23 00:23:18;;;;;;;150.80;11.87;;;;;;;18.94;100.00;99765.97;31009341;28;20086;-75
2023/10/23 00:38:20;;;;;;;158.27;11.83;;;;;;;18.81;100.00;99751.81;31004344;28;20526;-74
2023/10/23 00:53:25;;;;;;;111.67;10.10;;;;;;;18.82;100.00;99731.34;31022509;28;20076;-75
2023/10/23 01:08:27;;;;;;;107.90;9.93;;;;;;;18.80;100.00;99715.31;31001259;28;20054;-73
2023/10/23 01:23:35;;;;;;;71.40;8.23;;;;;;;18.80;100.00;99695.31;31003981;28;20082;-74
2023/10/23 01:38:37;;;;;;;130.90;10.93;;;;;;;18.82;100.00;99673.59;30993138;28;20062;-75
2023/10/23 01:53:39;;;;;;;83.37;8.33;;;;;;;18.83;100.00;99667.63;30996815;28;20050;-74
2023/10/23 02:08:41;;;;;;;69.70;8.90;;;;;;;18.81;100.00;99685.84;31000989;28;20050;-73
2023/10/23 02:23:43;;;;;;;52.60;9.50;;;;;;;18.86;100.00;99660.38;30995112;28;20503;-75
2023/10/23 02:38:57;;;;;;;54.27;8.33;;;;;;;18.73;100.00;99647.75;30980066;28;20100;-74
2023/10/23 02:53:59;;;;;;;53.57;9.67;;;;;;;18.95;100.00;99646.47;30979265;28;20073;-75
2023/10/23 03:09:03;;;;;;;59.93;13.13;;;;;;;18.96;100.00;99625.97;30989204;28;20125;-74
2023/10/23 03:24:05;;;;;;;31.00;11.83;;;;;;;19.06;100.00;99619.06;30984570;28;20141;-75
2023/10/23 03:39:07;;;;;;;29.67;11.80;;;;;;;18.93;100.00;99632.44;30979967;28;20133;-76
2023/10/23 03:54:09;;;;;;;22.90;12.07;;;;;;;18.99;100.00;99647.00;30983899;28;20057;-75
2023/10/23 04:09:11;;;;;;;22.13;12.27;;;;;;;18.92;100.00;99644.69;30996047;28;20058;-77
2023/10/23 04:24:13;;;;;;;18.93;11.13;;;;;;;18.73;100.00;99636.75;30988279;28;20094;-79
2023/10/23 04:39:18;;;;;;;;;;;;;;;18.92;100.00;99661.94;30988764;28;20043;-78
2023/10/23 04:54:20;;;;;;;24.90;12.40;;;;;;;18.77;100.00;99674.28;30982241;28;19960;-78
2023/10/23 05:09:22;;;;;;;22.63;10.80;;;;;;;18.87;100.00;99670.16;31006897;28;20109;-77
2023/10/23 05:24:25;;;;;;;37.77;16.10;;;;;;;19.11;100.00;99665.13;30997893;28;20062;-76
2023/10/23 05:39:29;;;;;;;36.40;15.53;;;;;;;19.43;100.00;99677.63;30993894;28;20057;-77
2023/10/23 05:54:31;;;;;;;43.43;18.33;;;;;;;19.78;100.00;99682.16;30995851;28;20054;-77
2023/10/23 06:09:33;;;;;;;46.53;21.20;;;;;;;20.11;100.00;99703.63;30992829;28;20093;-75
2023/10/23 06:24:35;;;;;;;48.20;15.17;;;;;;;20.33;100.00;99700.22;30993548;28;20066;-76
2023/10/23 06:39:37;;;;;;;35.77;13.63;;;;;;;20.53;100.00;99719.38;30983486;28;20050;-76
2023/10/23 06:54:39;;;;;;;27.27;12.00;;;;;;;20.77;100.00;99725.25;30980455;28;20054;-75
2023/10/23 07:09:42;;;;;;;27.80;12.52;;;;;;;21.33;100.00;99758.47;30982070;28;20077;-75
2023/10/23 07:24:44;;;;;;;37.78;19.45;;;;;;;22.01;100.00;99793.16;30979877;28;20092;-76
2023/10/23 07:39:47;;;;;;;25.05;12.23;;;;;;;23.56;100.00;99856.00;30984511;28;20193;-75
2023/10/23 07:54:51;;;;;;;20.95;12.65;;;;;;;27.16;100.00;99939.25;30976517;28;20406;-79
2023/10/23 08:09:53;;;;;;;17.33;10.18;;;;;;;28.56;100.00;99961.94;30981740;28;20050;-79
2023/10/23 08:24:55;;;;;;;14.43;9.53;;;;;;;29.74;88.91;99984.63;30977433;28;20474;-82
2023/10/23 08:39:57;;;;;;;15.37;8.17;;;;;;;30.54;78.75;99987.91;30980262;28;20054;-76
2023/10/23 08:55:01;;;;;;;17.85;9.63;;;;;;;31.44;70.02;99993.97;30991502;28;20867;-79
2023/10/23 09:10:03;;;;;;;18.55;8.82;;;;;;;32.37;65.55;99978.88;30992372;28;20042;-75
2023/10/23 09:25:07;;;;;;;17.58;11.55;;;;;;;32.98;60.35;99972.72;30979828;28;20050;-75
2023/10/23 09:40:13;;;;;;;15.25;9.13;;;;;;;33.22;59.13;99960.66;30971905;28;20048;-76
2023/10/23 09:55:20;;;;;;;17.13;9.00;;;;;;;33.17;56.73;99968.00;30972625;28;20054;-75
2023/10/23 10:10:23;;;;;;;18.17;9.80;;;;;;;33.84;55.73;99964.19;30974343;28;20069;-76
2023/10/23 10:25:27;;;;;;;11.57;6.43;;;;;;;33.45;54.41;99958.31;30976441;28;20116;-77
2023/10/23 10:41:12;;;;;;;10.20;6.07;;;;;;;33.11;50.58;99947.81;30974083;28;20081;-74
2023/10/23 10:56:14;;;;;;;8.45;5.63;;;;;;;32.15;52.24;99936.31;30963094;28;20486;-77
2023/10/23 11:11:17;;;;;;;17.23;6.85;;;;;;;32.41;52.69;99934.28;30980000;28;20453;-72
2023/10/23 11:26:19;;;;;;;6.43;2.70;;;;;;;32.13;48.61;99926.97;30967397;28;20090;-73
2023/10/23 11:41:21;;;;;;;4.07;1.40;;;;;;;33.10;43.80;99923.09;30988624;28;20129;-74
2023/10/23 11:56:26;;;;;;;2.38;1.25;;;;;;;33.41;42.64;99920.69;30992197;28;20472;-73
2023/10/23 12:11:31;;;;;;;2.97;1.23;;;;;;;31.99;42.30;99906.88;31011616;28;20506;-74
2023/10/23 12:26:34;;;;;;;4.68;1.50;;;;;;;29.97;45.92;99903.53;31024672;28;20058;-71
2023/10/23 12:41:36;;;;;;;2.72;0.85;;;;;;;29.26;46.68;99917.13;31023695;28;20050;-72
2023/10/23 12:56:38;;;;;;;2.33;1.50;;;;;;;28.85;46.65;99915.22;31022695;28;20054;-76
2023/10/23 13:11:40;;;;;;;3.47;1.80;;;;;;;28.37;47.19;99911.91;31010926;28;20061;-74
2023/10/23 13:26:49;;;;;;;7.37;3.17;;;;;;;27.93;46.40;99897.00;31002632;28;20093;-80
2023/10/23 13:41:52;;;;;;;5.45;1.88;;;;;;;27.57;47.70;99894.00;31008472;28;20046;-73
2023/10/23 13:56:54;;;;;;;5.35;1.95;;;;;;;27.15;48.62;99893.16;30999035;28;20077;-75
2023/10/23 14:11:56;;;;;;;6.80;3.58;;;;;;;26.73;50.24;99894.97;30996724;28;20061;-73
2023/10/23 14:27:03;;;;;;;5.72;2.92;;;;;;;26.36;50.70;99912.59;30988272;28;20423;-75
2023/10/23 14:42:05;;;;;;;3.78;1.52;;;;;;;26.10;49.77;99933.47;30986917;28;20054;-74
2023/10/23 14:57:09;;;;;;;6.05;1.83;;;;;;;25.81;49.50;99953.91;30992039;28;20046;-83
2023/10/23 15:12:12;;;;;;;5.65;2.45;;;;;;;25.39;50.45;99966.56;30998278;28;20050;-78
2023/10/23 15:27:23;;;;;;;5.63;2.17;;;;;;;25.09;51.16;99975.75;30993973;28;20081;-84
2023/10/23 15:42:28;;;;;;;5.25;2.30;;;;;;;24.88;51.49;99979.47;31004010;28;20055;-81
2023/10/23 15:57:36;;;;;;;5.50;2.40;;;;;;;24.81;51.75;99998.22;31006731;28;20064;-82
2023/10/23 16:12:38;;;;;;;6.63;2.88;;;;;;;24.49;52.38;100008.34;30952014;28;20054;-78
2023/10/23 16:27:40;;;;;;;3.72;2.10;;;;;;;24.35;52.16;100017.78;30915590;28;20149;-78
2023/10/23 16:42:42;;;;;;;5.15;1.90;;;;;;;24.15;52.50;100011.31;30981199;28;20429;-74
2023/10/23 16:57:48;;;;;;;46.42;20.08;;;;;;;24.01;52.58;100015.22;30992896;28;20494;-76
2023/10/23 17:12:50;;;;;;;7.88;3.97;;;;;;;23.75;52.79;100007.28;31002991;28;20497;-74
2023/10/23 17:27:54;;;;;;;6.00;2.42;;;;;;;23.42;53.21;100019.22;31004229;28;20054;-75
2023/10/23 17:42:56;;;;;;;6.63;2.57;;;;;;;23.30;53.40;100026.06;31002499;28;20061;-76
2023/10/23 17:57:59;;;;;;;4.57;1.80;;;;;;;23.04;54.13;100023.63;31000882;28;20050;-76
2023/10/23 18:13:01;;;;;;;21.67;10.18;;;;;;;22.99;54.58;100024.38;30964965;28;20112;-74
2023/10/23 18:28:03;;;;;;;3.97;1.90;;;;;;;22.85;55.27;100039.25;30977200;28;20093;-75
2023/10/23 18:43:08;;;;;;;3.85;1.40;;;;;;;22.65;55.49;100059.59;30978041;28;20070;-74
2023/10/23 18:58:10;;;;;;;3.55;1.83;;;;;;;22.48;56.33;100074.66;30976484;28;20126;-75
2023/10/23 19:13:12;;;;;;;4.35;1.58;;;;;;;22.27;56.72;100079.66;30963841;28;20050;-74
2023/10/23 19:28:16;;;;;;;21.70;14.40;;;;;;;22.09;57.99;100080.88;30968817;28;20061;-78
2023/10/23 19:43:24;;;;;;;3.20;2.22;;;;;;;21.80;59.54;100098.56;30966598;28;20113;-75
2023/10/23 19:58:27;;;;;;;3.83;2.42;;;;;;;21.70;60.05;100058.59;30974670;28;20053;-76
2023/10/23 20:13:29;;;;;;;9.52;4.07;;;;;;;21.67;61.38;100068.63;30977420;28;20051;-77
2023/10/23 20:28:31;;;;;;;3.40;2.00;;;;;;;21.41;62.15;100060.47;30995772;28;20058;-79
2023/10/23 20:43:33;;;;;;;4.63;2.70;;;;;;;21.24;63.55;100070.66;31011644;28;20042;-75
2023/10/23 20:58:36;;;;;;;4.43;2.42;;;;;;;21.10;64.82;100066.00;31013968;28;20053;-79
2023/10/23 21:13:38;;;;;;;4.13;2.60;;;;;;;21.11;65.76;100073.03;31016458;28;20054;-77
2023/10/23 21:28:46;;;;;;;4.30;2.40;;;;;;;20.83;67.52;100085.84;31010074;28;20145;-79
2023/10/23 21:43:48;;;;;;;6.60;2.25;;;;;;;20.62;69.38;100099.72;31004927;28;20442;-77
2023/10/23 21:58:51;;;;;;;3.23;2.13;;;;;;;20.54;70.76;100109.69;30998229;28;20435;-78
2023/10/23 22:14:13;;;;;;;3.93;2.33;;;;;;;20.57;71.42;100105.19;31003163;28;20495;-78
2023/10/23 22:29:15;;;;;;;5.13;2.78;;;;;;;20.55;71.51;100111.19;30984612;28;20078;-77
2023/10/23 22:44:17;;;;;;;5.53;2.40;;;;;;;20.32;71.93;100110.16;30952745;28;20564;-77
2023/10/23 22:59:20;;;;;;;4.17;2.37;;;;;;;20.21;72.71;100103.78;30994910;28;20479;-76
2023/10/23 23:14:22;;;;;;;6.43;3.03;;;;;;;20.03;73.35;100115.88;30964994;28;20050;-77
2023/10/23 23:29:24;;;;;;;6.63;2.83;;;;;;;19.85;74.59;100114.13;30961506;28;20490;-78
2023/10/23 23:44:27;;;;;;;4.93;3.00;;;;;;;19.78;75.41;100109.03;30883578;28;20113;-79
2023/10/23 23:59:29;;;;;;;5.00;2.97;;;;;;;19.67;77.06;100090.38;30961642;28;20053;-77
